CMA CGM Florida — 2AKU3 — position and weather

sailwx.info

Track history (hours):
 
Tides and Currents Weather Stations Pressure Air Temp Water Temp Dewpoint Dewpoint Depression Visibility Wind Speed Wind Dir Waves Ship Positions

CMA CGM Florida

Last reported at 2017-Oct-17 20:31 UTC. Time now 2017-Oct-17 20:41 UTC.
Position N 38°06' W 025°37'.

Length 294 m; draft 10.7 m.

Type: Ship (hazmat cat A). MMSI: 235060593.

Date/timePositionNaut miles runAvg speedWind from/ knotsBaromVisibWave heightAir tempDewpointWater temp
2017-Oct-17 20:31N 38°06' W 025°37'714.5
2017-Oct-17 20:00N 38°06' W 025°46'714.4
2017-Oct-17 19:30N 38°07' W 025°55'714.3
2017-Oct-17 19:01N 38°07' W 026°04'714.2
2017-Oct-17 18:30N 38°07' W 026°13'713.9
2017-Oct-17 18:00N 38°07' W 026°22'714.4
2017-Oct-17 17:30N 38°08' W 026°31'714.7
2017-Oct-17 17:01N 38°08' W 026°41'714.6
2017-Oct-17 16:30N 38°08' W 026°50'714.7
2017-Oct-17 16:00N 38°09' W 026°59'714.6
2017-Oct-17 15:30N 38°09' W 027°08'714.6
2017-Oct-17 15:00N 38°09' W 027°18'815.3
2017-Oct-17 14:30N 38°09' W 027°27'714.8
2017-Oct-17 14:00N 38°09' W 027°37'915.4
2017-Oct-17 13:27N 38°09' W 027°48'715.7
2017-Oct-17 13:00N 38°10' W 027°57'815.1
2017-Oct-17 12:30N 38°10' W 028°06'1015.4
2017-Oct-17 11:52N 38°09' W 028°19'  
2017-Oct-10 00:15N 26°01' W 079°38'614.6
2017-Oct-09 23:51N 25°56' W 079°40'412.8
2017-Oct-09 23:30N 25°54' W 079°45'613.2
2017-Oct-09 23:00N 25°51' W 079°51'713.2
2017-Oct-09 22:30N 25°48' W 079°58'612.9
2017-Oct-09 22:01N 25°46' W 080°04'4 6.1
2017-Oct-09 21:20N 25°46' W 080°09'0 0.3
2017-Oct-09 21:00N 25°46' W 080°09'0 0.0
2017-Oct-09 20:27N 25°46' W 080°09'0 0.0
2017-Oct-09 20:00N 25°46' W 080°09'0 0.0
2017-Oct-09 19:30N 25°46' W 080°09'0 0.0
2017-Oct-09 19:00N 25°46' W 080°09'0 0.0
2017-Oct-09 18:30N 25°46' W 080°09'0 0.0
2017-Oct-09 17:57N 25°46' W 080°09'0 0.0
2017-Oct-09 17:27N 25°46' W 080°09'0 0.0
2017-Oct-09 17:00N 25°46' W 080°09'0 0.0
2017-Oct-09 16:27N 25°46' W 080°09'0 0.0
2017-Oct-09 15:51N 25°46' W 080°09'0 0.0
2017-Oct-09 15:30N 25°46' W 080°09'0 0.0
2017-Oct-09 14:54N 25°46' W 080°09'0 0.0
2017-Oct-09 14:27N 25°46' W 080°09'0 0.0
2017-Oct-09 13:57N 25°46' W 080°09'0 0.0
2017-Oct-09 13:30N 25°46' W 080°09'0 0.0
2017-Oct-09 13:00N 25°46' W 080°09'0 0.0
2017-Oct-09 12:27N 25°46' W 080°09'0 0.0
2017-Oct-09 12:00N 25°46' W 080°09'0 0.0
2017-Oct-09 11:30N 25°46' W 080°09'0 0.0
2017-Oct-09 11:00N 25°46' W 080°09'0 0.0
2017-Oct-09 10:30N 25°46' W 080°09'0 0.1
2017-Oct-09 10:00N 25°46' W 080°09'2 4.5
2017-Oct-09 09:31N 25°45' W 080°07'5 9.9
2017-Oct-09 09:00N 25°47' W 080°02'5 9.0
2017-Oct-09 08:30N 25°52' W 079°60'612.5
2017-Oct-09 08:00N 25°58' W 079°58'612.7
2017-Oct-09 07:30N 26°04' W 079°57'612.7
2017-Oct-09 07:00N 26°10' W 079°57'12 1.5
2017-Oct-08 23:05N 26°22' W 079°54'0 1.1
2017-Oct-08 23:00N 26°22' W 079°54'1 1.3
2017-Oct-08 22:30N 26°21' W 079°54'1 1.4
2017-Oct-08 22:00N 26°21' W 079°53'1 1.3
2017-Oct-08 21:30N 26°20' W 079°53'0 1.0
2017-Oct-08 21:00N 26°20' W 079°53'0 0.7
2017-Oct-08 20:30N 26°20' W 079°52'0 0.7
2017-Oct-08 20:00N 26°19' W 079°52'0 0.9
2017-Oct-08 19:30N 26°19' W 079°52'1 1.0
2017-Oct-08 19:00N 26°18' W 079°53'1 1.0
2017-Oct-08 18:30N 26°18' W 079°53'0 0.8
2017-Oct-08 18:00N 26°18' W 079°53'2 3.5
2017-Oct-08 17:30N 26°19' W 079°53'4 7.1
2017-Oct-08 17:00N 26°23' W 079°53'3 7.2
2017-Oct-08 16:30N 26°27' W 079°53'3 6.9
2017-Oct-08 16:00N 26°30' W 079°52'3 6.9
2017-Oct-08 15:30N 26°33' W 079°52'8 6.6
2017-Oct-08 14:15N 26°42' W 079°51'4 6.3
2017-Oct-08 13:37N 26°46' W 079°50'1 6.3
2017-Oct-08 13:29N 26°46' W 079°50'4 6.1
2017-Oct-08 12:53N 26°50' W 079°50'2 6.6
2017-Oct-08 12:30N 26°53' W 079°49'5 9.5
2017-Oct-08 12:00N 26°57' W 079°49'5 9.2
2017-Oct-08 11:30N 27°02' W 079°49'  
Track history (hours):
 
Tides and Currents Weather Stations Pressure Air Temp Water Temp Dewpoint Dewpoint Depression Visibility Wind Speed Wind Dir Waves Ship Positions

CMA CGM Florida

Last reported at 2017-Oct-17 20:31 UTC. Time now 2017-Oct-17 20:41 UTC.
Position N 38°06' W 025°37'.

Length 294 m; draft 10.7 m.

Type: Ship (hazmat cat A). MMSI: 235060593.

Date/timePositionNaut miles runAvg speedWind from/ knotsBaromVisibWave heightAir tempDewpointWater temp
2017-Oct-17 20:31N 38°06' W 025°37'714.5
2017-Oct-17 20:00N 38°06' W 025°46'714.4
2017-Oct-17 19:30N 38°07' W 025°55'714.3
2017-Oct-17 19:01N 38°07' W 026°04'714.2
2017-Oct-17 18:30N 38°07' W 026°13'713.9
2017-Oct-17 18:00N 38°07' W 026°22'714.4
2017-Oct-17 17:30N 38°08' W 026°31'714.7
2017-Oct-17 17:01N 38°08' W 026°41'714.6
2017-Oct-17 16:30N 38°08' W 026°50'714.7
2017-Oct-17 16:00N 38°09' W 026°59'714.6
2017-Oct-17 15:30N 38°09' W 027°08'714.6
2017-Oct-17 15:00N 38°09' W 027°18'815.3
2017-Oct-17 14:30N 38°09' W 027°27'714.8
2017-Oct-17 14:00N 38°09' W 027°37'915.4
2017-Oct-17 13:27N 38°09' W 027°48'715.7
2017-Oct-17 13:00N 38°10' W 027°57'815.1
2017-Oct-17 12:30N 38°10' W 028°06'1015.4
2017-Oct-17 11:52N 38°09' W 028°19'  
2017-Oct-10 00:15N 26°01' W 079°38'614.6
2017-Oct-09 23:51N 25°56' W 079°40'412.8
2017-Oct-09 23:30N 25°54' W 079°45'613.2
2017-Oct-09 23:00N 25°51' W 079°51'713.2
2017-Oct-09 22:30N 25°48' W 079°58'612.9
2017-Oct-09 22:01N 25°46' W 080°04'4 6.1
2017-Oct-09 21:20N 25°46' W 080°09'0 0.3
2017-Oct-09 21:00N 25°46' W 080°09'0 0.0
2017-Oct-09 20:27N 25°46' W 080°09'0 0.0
2017-Oct-09 20:00N 25°46' W 080°09'0 0.0
2017-Oct-09 19:30N 25°46' W 080°09'0 0.0
2017-Oct-09 19:00N 25°46' W 080°09'0 0.0
2017-Oct-09 18:30N 25°46' W 080°09'0 0.0
2017-Oct-09 17:57N 25°46' W 080°09'0 0.0
2017-Oct-09 17:27N 25°46' W 080°09'0 0.0
2017-Oct-09 17:00N 25°46' W 080°09'0 0.0
2017-Oct-09 16:27N 25°46' W 080°09'0 0.0
2017-Oct-09 15:51N 25°46' W 080°09'0 0.0
2017-Oct-09 15:30N 25°46' W 080°09'0 0.0
2017-Oct-09 14:54N 25°46' W 080°09'0 0.0
2017-Oct-09 14:27N 25°46' W 080°09'0 0.0
2017-Oct-09 13:57N 25°46' W 080°09'0 0.0
2017-Oct-09 13:30N 25°46' W 080°09'0 0.0
2017-Oct-09 13:00N 25°46' W 080°09'0 0.0
2017-Oct-09 12:27N 25°46' W 080°09'0 0.0
2017-Oct-09 12:00N 25°46' W 080°09'0 0.0
2017-Oct-09 11:30N 25°46' W 080°09'0 0.0
2017-Oct-09 11:00N 25°46' W 080°09'0 0.0
2017-Oct-09 10:30N 25°46' W 080°09'0 0.1
2017-Oct-09 10:00N 25°46' W 080°09'2 4.5
2017-Oct-09 09:31N 25°45' W 080°07'5 9.9
2017-Oct-09 09:00N 25°47' W 080°02'5 9.0
2017-Oct-09 08:30N 25°52' W 079°60'612.5
2017-Oct-09 08:00N 25°58' W 079°58'612.7
2017-Oct-09 07:30N 26°04' W 079°57'612.7
2017-Oct-09 07:00N 26°10' W 079°57'12 1.5
2017-Oct-08 23:05N 26°22' W 079°54'0 1.1
2017-Oct-08 23:00N 26°22' W 079°54'1 1.3
2017-Oct-08 22:30N 26°21' W 079°54'1 1.4
2017-Oct-08 22:00N 26°21' W 079°53'1 1.3
2017-Oct-08 21:30N 26°20' W 079°53'0 1.0
2017-Oct-08 21:00N 26°20' W 079°53'0 0.7
2017-Oct-08 20:30N 26°20' W 079°52'0 0.7
2017-Oct-08 20:00N 26°19' W 079°52'0 0.9
2017-Oct-08 19:30N 26°19' W 079°52'1 1.0
2017-Oct-08 19:00N 26°18' W 079°53'1 1.0
2017-Oct-08 18:30N 26°18' W 079°53'0 0.8
2017-Oct-08 18:00N 26°18' W 079°53'2 3.5
2017-Oct-08 17:30N 26°19' W 079°53'4 7.1
2017-Oct-08 17:00N 26°23' W 079°53'3 7.2
2017-Oct-08 16:30N 26°27' W 079°53'3 6.9
2017-Oct-08 16:00N 26°30' W 079°52'3 6.9
2017-Oct-08 15:30N 26°33' W 079°52'8 6.6
2017-Oct-08 14:15N 26°42' W 079°51'4 6.3
2017-Oct-08 13:37N 26°46' W 079°50'1 6.3
2017-Oct-08 13:29N 26°46' W 079°50'4 6.1
2017-Oct-08 12:53N 26°50' W 079°50'2 6.6
2017-Oct-08 12:30N 26°53' W 079°49'5 9.5
2017-Oct-08 12:00N 26°57' W 079°49'5 9.2
2017-Oct-08 11:30N 27°02' W 079°49'  

Dump ship's entire track history